Time,TemperatureF,DewpointF,PressureIn,WindDirection,WindDirectionDegrees,WindSpeedMPH,WindSpeedGustMPH,Humidity,HourlyPrecipIn,Conditions,Clouds,dailyrainin,SolarRadiationWatts/m^2,SoftwareType,DateUTC
2013-03-23 00:00:00,22.1,19.6,29.73,WSW,242,10.0,10.0,90,0.00,,,0.04,0.0,WeatherDisplay:10.37,2013-03-23 04:00:00,
2013-03-23 00:01:00,22.1,19.6,29.73,West,275,11.5,11.5,90,0.00,RA,,0.00,0.0,WeatherDisplay:10.37,2013-03-23 04:01:00,
2013-03-23 00:02:00,22.1,19.6,29.73,WSW,257,10.4,10.4,90,0.00,RA,,0.00,0.0,WeatherDisplay:10.37,2013-03-23 04:02:00,
2013-03-23 00:07:00,22.2,19.5,29.73,West,275,10.4,10.4,89,0.00,RA,,0.00,0.0,WeatherDisplay:10.37,2013-03-23 04:07:00,
2013-03-23 00:12:00,22.3,19.3,29.73,West,279,10.4,10.4,88,0.00,,,0.00,0.0,WeatherDisplay:10.37,2013-03-23 04:12:00,
2013-03-23 00:17:00,22.4,19.4,29.73,West,263,11.5,11.5,88,0.00,,,0.00,0.0,WeatherDisplay:10.37,2013-03-23 04:17:00,
2013-03-23 00:23:00,22.5,19.2,29.73,West,267,8.1,8.1,87,0.00,,,0.00,0.0,WeatherDisplay:10.37,2013-03-23 04:23:00,
2013-03-23 00:28:00,22.6,19.3,29.73,WNW,282,10.4,10.4,87,0.00,,,0.00,0.0,WeatherDisplay:10.37,2013-03-23 04:28:00,
2013-03-23 00:33:00,22.8,19.5,29.73,WSW,246,9.2,9.2,87,0.00,,,0.00,0.0,WeatherDisplay:10.37,2013-03-23 04:33:00,
2013-03-23 00:38:00,22.8,19.2,29.72,WSW,246,11.5,11.5,86,0.00,,,0.00,0.0,WeatherDisplay:10.37,2013-03-23 04:38:00,
2013-03-23 00:43:00,22.8,19.2,29.72,West,276,11.5,11.5,86,0.00,,,0.00,0.0,WeatherDisplay:10.37,2013-03-23 04:43:00,
2013-03-23 00:48:00,22.9,19.3,29.73,WSW,253,9.2,9.2,86,0.00,,,0.00,0.0,WeatherDisplay:10.37,2013-03-23 04:48:00,
2013-03-23 00:53:00,22.9,19.3,29.72,WSW,242,8.1,8.1,86,0.00,,,0.00,0.0,WeatherDisplay:10.37,2013-03-23 04:53:00,
2013-03-23 00:58:00,23.0,19.4,29.72,West,263,9.2,9.2,86,0.00,,,0.00,0.0,WeatherDisplay:10.37,2013-03-23 04:58:00,
2013-03-23 01:03:00,23.0,19.2,29.72,WNW,286,8.1,8.1,85,0.00,,,0.00,0.0,WeatherDisplay:10.37,2013-03-23 05:03:00,
2013-03-23 01:08:00,23.0,19.4,29.73,WNW,302,9.2,9.2,86,0.00,,,0.00,0.0,WeatherDisplay:10.37,2013-03-23 05:08:00,
2013-03-23 01:13:00,23.1,19.3,29.72,West,262,3.5,3.5,85,0.00,,,0.00,0.0,WeatherDisplay:10.37,2013-03-23 05:13:00,
2013-03-23 01:18:00,23.1,19.5,29.73,West,259,3.5,3.5,86,0.00,,,0.00,0.0,WeatherDisplay:10.37,2013-03-23 05:18:00,
2013-03-23 01:23:00,23.1,19.5,29.73,West,277,7.0,7.0,86,0.00,,,0.00,0.0,WeatherDisplay:10.37,2013-03-23 05:23:00,
2013-03-23 01:28:00,23.2,19.6,29.72,WSW,257,8.1,8.1,86,0.00,,,0.00,0.0,WeatherDisplay:10.37,2013-03-23 05:28:00,
2013-03-23 01:33:00,23.4,19.8,29.72,WSW,244,9.2,9.2,86,0.00,,,0.00,0.0,WeatherDisplay:10.37,2013-03-23 05:33:00,
2013-03-23 01:38:00,23.5,19.7,29.72,WSW,250,8.1,8.1,85,0.00,,,0.00,0.0,WeatherDisplay:10.37,2013-03-23 05:38:00,
2013-03-23 01:43:00,23.6,19.8,29.72,WSW,244,10.4,10.4,85,0.00,,,0.00,0.0,WeatherDisplay:10.37,2013-03-23 05:43:00,
2013-03-23 01:48:00,23.5,19.4,29.72,West,273,9.2,9.2,84,0.00,,,0.00,0.0,WeatherDisplay:10.37,2013-03-23 05:48:00,
2013-03-23 01:53:00,23.5,19.4,29.72,West,259,11.5,11.5,84,0.00,,,0.00,0.0,WeatherDisplay:10.37,2013-03-23 05:53:00,
2013-03-23 01:58:00,23.6,19.5,29.72,West,263,6.0,6.0,84,0.00,,,0.00,0.0,WeatherDisplay:10.37,2013-03-23 05:58:00,
2013-03-23 02:03:00,23.6,19.5,29.72,WSW,257,5.0,5.0,84,0.00,,,0.00,0.0,WeatherDisplay:10.37,2013-03-23 06:03:00,
2013-03-23 02:08:00,23.6,19.5,29.72,NW,304,4.6,4.6,84,0.00,,,0.00,0.0,WeatherDisplay:10.37,2013-03-23 06:08:00,
2013-03-23 02:13:00,23.7,19.6,29.72,WSW,255,3.5,3.5,84,0.00,,,0.00,0.0,WeatherDisplay:10.37,2013-03-23 06:13:00,
2013-03-23 02:18:00,23.7,19.6,29.71,WSW,255,3.5,3.5,84,0.00,,,0.00,0.0,WeatherDisplay:10.37,2013-03-23 06:18:00,
2013-03-23 02:23:00,23.6,19.5,29.71,West,259,6.9,6.9,84,0.00,,,0.00,0.0,WeatherDisplay:10.37,2013-03-23 06:23:00,
2013-03-23 02:28:00,23.6,19.5,29.71,SW,234,10.4,10.4,84,0.00,,,0.00,0.0,WeatherDisplay:10.37,2013-03-23 06:28:00,
2013-03-23 02:33:00,23.7,19.6,29.70,WSW,258,9.2,9.2,84,0.00,,,0.00,0.0,WeatherDisplay:10.37,2013-03-23 06:33:00,
2013-03-23 02:38:00,23.7,19.6,29.70,West,259,7.0,7.0,84,0.00,,,0.00,0.0,WeatherDisplay:10.37,2013-03-23 06:38:00,
2013-03-23 02:43:00,23.7,19.9,29.70,West,269,5.8,5.8,85,0.00,,,0.00,0.0,WeatherDisplay:10.37,2013-03-23 06:43:00,
2013-03-23 02:48:00,23.8,19.7,29.70,WSW,250,6.0,6.0,84,0.00,,,0.00,0.0,WeatherDisplay:10.37,2013-03-23 06:48:00,
2013-03-23 02:53:00,23.9,19.8,29.70,WSW,256,10.4,10.4,84,0.00,,,0.00,0.0,WeatherDisplay:10.37,2013-03-23 06:53:00,
2013-03-23 02:58:00,23.9,19.8,29.70,WSW,249,8.1,8.1,84,0.00,,,0.00,0.0,WeatherDisplay:10.37,2013-03-23 06:58:00,
2013-03-23 03:03:00,23.9,19.8,29.70,WSW,240,10.4,10.4,84,0.00,,,0.00,0.0,WeatherDisplay:10.37,2013-03-23 07:03:00,
2013-03-23 03:08:00,23.9,19.8,29.70,West,261,11.5,11.5,84,0.00,,,0.00,0.0,WeatherDisplay:10.37,2013-03-23 07:08:00,
2013-03-23 03:13:00,23.9,19.8,29.70,WSW,248,7.0,7.0,84,0.00,,,0.00,0.0,WeatherDisplay:10.37,2013-03-23 07:13:00,
2013-03-23 03:18:00,23.9,20.0,29.70,West,271,9.0,9.0,85,0.00,,,0.00,0.0,WeatherDisplay:10.37,2013-03-23 07:18:00,
2013-03-23 03:23:00,24.0,20.1,29.70,West,271,13.8,13.8,85,0.00,,,0.00,0.0,WeatherDisplay:10.37,2013-03-23 07:23:00,
2013-03-23 03:28:00,24.0,20.1,29.69,WSW,250,13.8,13.8,85,0.00,,,0.00,0.0,WeatherDisplay:10.37,2013-03-23 07:28:00,
2013-03-23 03:33:00,24.1,20.0,29.69,WNW,285,10.4,10.4,84,0.00,,,0.00,0.0,WeatherDisplay:10.37,2013-03-23 07:33:00,
2013-03-23 03:38:00,24.2,20.1,29.69,West,275,5.0,5.0,84,0.00,,,0.00,0.0,WeatherDisplay:10.37,2013-03-23 07:38:00,
2013-03-23 03:44:00,24.2,20.1,29.69,WSW,239,11.0,11.0,84,0.00,,,0.00,0.0,WeatherDisplay:10.37,2013-03-23 07:44:00,
2013-03-23 03:49:00,24.3,19.9,29.69,West,267,5.8,5.8,83,0.00,,,0.00,0.0,WeatherDisplay:10.37,2013-03-23 07:49:00,
2013-03-23 03:54:00,24.4,20.0,29.68,WNW,291,15.0,15.0,83,0.00,,,0.00,0.0,WeatherDisplay:10.37,2013-03-23 07:54:00,
2013-03-23 03:59:00,24.5,20.1,29.68,West,267,8.0,8.0,83,0.00,,,0.00,0.0,WeatherDisplay:10.37,2013-03-23 07:59:00,
2013-03-23 04:04:00,24.5,19.8,29.68,West,259,9.2,9.2,82,0.00,,,0.00,0.0,WeatherDisplay:10.37,2013-03-23 08:04:00,
2013-03-23 04:09:00,24.5,19.8,29.68,WSW,238,8.1,8.1,82,0.00,,,0.00,0.0,WeatherDisplay:10.37,2013-03-23 08:09:00,
2013-03-23 04:14:00,24.5,19.8,29.68,West,272,17.0,17.0,82,0.00,,,0.00,0.0,WeatherDisplay:10.37,2013-03-23 08:14:00,
2013-03-23 04:19:00,24.5,20.1,29.68,West,279,12.7,12.7,83,0.00,,,0.00,0.0,WeatherDisplay:10.37,2013-03-23 08:19:00,
2013-03-23 04:24:00,24.5,20.1,29.68,West,271,7.0,7.0,83,0.00,,,0.00,0.0,WeatherDisplay:10.37,2013-03-23 08:24:00,
2013-03-23 04:29:00,24.6,20.5,29.68,NNW,339,12.7,12.7,84,0.00,,,0.00,0.0,WeatherDisplay:10.37,2013-03-23 08:29:00,
2013-03-23 04:34:00,24.6,20.5,29.68,West,265,6.9,6.9,84,0.00,,,0.00,0.0,WeatherDisplay:10.37,2013-03-23 08:34:00,
2013-03-23 04:39:00,24.6,20.5,29.68,West,269,11.5,11.5,84,0.00,,,0.00,0.0,WeatherDisplay:10.37,2013-03-23 08:39:00,
2013-03-23 04:44:00,24.6,20.5,29.68,West,271,8.1,8.1,84,0.00,,,0.00,0.0,WeatherDisplay:10.37,2013-03-23 08:44:00,
2013-03-23 04:49:00,24.7,20.6,29.68,West,265,10.4,10.4,84,0.00,,,0.00,0.0,WeatherDisplay:10.37,2013-03-23 08:49:00,
2013-03-23 04:54:00,24.6,20.5,29.67,West,273,10.0,10.0,84,0.00,,,0.00,0.0,WeatherDisplay:10.37,2013-03-23 08:54:00,
2013-03-23 04:59:00,24.7,20.6,29.67,West,281,10.4,10.4,84,0.00,,,0.00,0.0,WeatherDisplay:10.37,2013-03-23 08:59:00,
2013-03-23 05:04:00,24.7,20.6,29.67,West,270,11.5,11.5,84,0.00,,,0.00,0.0,WeatherDisplay:10.37,2013-03-23 09:04:00,
2013-03-23 05:09:00,24.7,20.6,29.67,WNW,284,11.0,11.0,84,0.00,,,0.00,0.0,WeatherDisplay:10.37,2013-03-23 09:09:00,
2013-03-23 05:14:00,24.7,20.6,29.68,WNW,287,8.1,8.1,84,0.00,,,0.00,0.0,WeatherDisplay:10.37,2013-03-23 09:14:00,
2013-03-23 05:19:00,24.8,20.7,29.68,West,261,9.2,9.2,84,0.00,,,0.00,0.0,WeatherDisplay:10.37,2013-03-23 09:19:00,
2013-03-23 05:24:00,24.8,20.4,29.68,WNW,286,12.0,12.0,83,0.00,,,0.00,0.0,WeatherDisplay:10.37,2013-03-23 09:24:00,
2013-03-23 05:29:00,24.8,20.4,29.68,West,273,6.9,6.9,83,0.00,,,0.00,0.0,WeatherDisplay:10.37,2013-03-23 09:29:00,
2013-03-23 05:34:00,24.9,20.5,29.68,WNW,291,12.0,12.0,83,0.00,,,0.00,0.0,WeatherDisplay:10.37,2013-03-23 09:34:00,
2013-03-23 05:39:00,24.9,20.5,29.68,WSW,257,9.2,9.2,83,0.00,,,0.00,0.0,WeatherDisplay:10.37,2013-03-23 09:39:00,
2013-03-23 05:44:00,24.9,20.5,29.67,West,277,8.1,8.1,83,0.00,,,0.00,0.0,WeatherDisplay:10.37,2013-03-23 09:44:00,
2013-03-23 05:49:00,24.8,20.4,29.67,West,267,10.4,10.4,83,0.00,,,0.00,0.0,WeatherDisplay:10.37,2013-03-23 09:49:00,
2013-03-23 05:54:00,24.8,20.4,29.67,WSW,251,12.0,12.0,83,0.00,,,0.00,0.0,WeatherDisplay:10.37,2013-03-23 09:54:00,
2013-03-23 05:59:00,24.8,20.4,29.67,WNW,288,11.0,11.0,83,0.00,,,0.00,0.0,WeatherDisplay:10.37,2013-03-23 09:59:00,
2013-03-23 06:04:00,24.8,20.7,29.67,West,281,12.0,12.0,84,0.00,,,0.00,0.0,WeatherDisplay:10.37,2013-03-23 10:04:00,
2013-03-23 06:09:00,24.7,20.3,29.67,West,279,12.7,12.7,83,0.00,,,0.00,0.0,WeatherDisplay:10.37,2013-03-23 10:09:00,
2013-03-23 06:14:00,24.7,20.3,29.67,WSW,251,12.7,12.7,83,0.00,,,0.00,0.0,WeatherDisplay:10.37,2013-03-23 10:14:00,
2013-03-23 06:19:00,24.7,20.3,29.67,West,263,15.0,15.0,83,0.00,,,0.00,0.0,WeatherDisplay:10.37,2013-03-23 10:19:00,
2013-03-23 06:24:00,24.7,20.0,29.67,West,260,14.0,14.0,82,0.00,,,0.00,0.0,WeatherDisplay:10.37,2013-03-23 10:24:00,
2013-03-23 06:29:00,24.7,20.0,29.67,West,273,14.0,14.0,82,0.00,,,0.00,0.0,WeatherDisplay:10.37,2013-03-23 10:29:00,
2013-03-23 06:34:00,24.7,20.0,29.67,West,277,13.8,13.8,82,0.00,,,0.00,0.0,WeatherDisplay:10.37,2013-03-23 10:34:00,
2013-03-23 06:39:00,24.6,19.9,29.67,West,261,10.4,10.4,82,0.00,,,0.00,0.0,WeatherDisplay:10.37,2013-03-23 10:39:00,
2013-03-23 06:44:00,24.6,19.9,29.67,NW,312,11.5,11.5,82,0.00,,,0.00,0.0,WeatherDisplay:10.37,2013-03-23 10:44:00,
2013-03-23 06:49:00,24.5,20.1,29.67,WNW,283,16.1,16.1,83,0.00,,,0.00,0.0,WeatherDisplay:10.37,2013-03-23 10:49:00,
2013-03-23 06:54:00,24.5,19.8,29.67,WSW,254,11.5,11.5,82,0.00,,,0.00,0.0,WeatherDisplay:10.37,2013-03-23 10:54:00,
2013-03-23 06:59:00,24.6,19.9,29.68,West,271,11.5,11.5,82,0.00,,,0.00,0.0,WeatherDisplay:10.37,2013-03-23 10:59:00,
2013-03-23 07:04:00,24.6,19.9,29.68,West,265,20.7,20.7,82,0.00,,,0.00,0.0,WeatherDisplay:10.37,2013-03-23 11:04:00,
2013-03-23 07:09:00,24.6,20.2,29.68,West,264,15.0,15.0,83,0.00,,,0.00,5.0,WeatherDisplay:10.37,2013-03-23 11:09:00,
2013-03-23 07:14:00,24.5,19.8,29.68,West,269,16.1,16.1,82,0.00,,,0.00,7.0,WeatherDisplay:10.37,2013-03-23 11:14:00,
2013-03-23 07:19:00,24.5,19.8,29.68,WSW,246,15.0,15.0,82,0.00,,,0.00,9.0,WeatherDisplay:10.37,2013-03-23 11:19:00,
2013-03-23 07:24:00,24.5,19.8,29.68,West,281,16.1,16.1,82,0.00,,,0.00,14.0,WeatherDisplay:10.37,2013-03-23 11:24:00,
2013-03-23 07:29:00,24.5,19.8,29.68,West,279,12.7,12.7,82,0.00,,,0.00,21.0,WeatherDisplay:10.37,2013-03-23 11:29:00,
2013-03-23 07:34:00,24.5,20.1,29.68,WSW,246,10.0,10.0,83,0.00,,,0.00,25.0,WeatherDisplay:10.37,2013-03-23 11:34:00,
2013-03-23 07:39:00,24.6,20.2,29.68,West,278,16.1,16.1,83,0.00,,,0.00,28.0,WeatherDisplay:10.37,2013-03-23 11:39:00,
2013-03-23 07:44:00,24.6,20.2,29.68,West,270,23.0,23.0,83,0.00,,,0.00,23.0,WeatherDisplay:10.37,2013-03-23 11:44:00,
2013-03-23 07:49:00,24.6,20.2,29.68,West,268,26.5,26.5,83,0.00,,,0.00,26.0,WeatherDisplay:10.37,2013-03-23 11:49:00,
2013-03-23 07:54:00,24.6,20.2,29.68,NNW,329,13.8,13.8,83,0.00,,,0.00,39.0,WeatherDisplay:10.37,2013-03-23 11:54:00,
2013-03-23 07:59:00,24.5,20.1,29.69,West,265,12.0,12.0,83,0.00,,,0.00,47.0,WeatherDisplay:10.37,2013-03-23 11:59:00,
2013-03-23 08:04:00,24.5,20.1,29.69,WSW,257,11.0,11.0,83,0.00,OVC,,0.00,74.0,WeatherDisplay:10.37,2013-03-23 12:04:00,
2013-03-23 08:10:00,24.6,20.2,29.69,WSW,247,14.0,14.0,83,0.00,OVC,,0.00,56.0,WeatherDisplay:10.37,2013-03-23 12:10:00,
2013-03-23 08:15:00,24.6,20.2,29.69,West,271,13.8,13.8,83,0.00,OVC,,0.00,53.0,WeatherDisplay:10.37,2013-03-23 12:15:00,
2013-03-23 08:20:00,24.6,20.2,29.69,West,279,13.8,13.8,83,0.00,OVC,,0.00,49.0,WeatherDisplay:10.37,2013-03-23 12:20:00,
2013-03-23 08:25:00,24.6,20.2,29.69,WSW,244,12.7,12.7,83,0.00,OVC,,0.00,44.0,WeatherDisplay:10.37,2013-03-23 12:25:00,
2013-03-23 08:30:00,24.6,20.2,29.69,NW,323,10.0,10.0,83,0.00,OVC,,0.00,42.0,WeatherDisplay:10.37,2013-03-23 12:30:00,
2013-03-23 08:35:00,24.6,19.9,29.69,WNW,284,15.0,15.0,82,0.00,OVC,,0.00,46.0,WeatherDisplay:10.37,2013-03-23 12:35:00,
2013-03-23 08:40:00,24.6,19.9,29.69,WNW,284,9.0,9.0,82,0.00,OVC,,0.00,51.0,WeatherDisplay:10.37,2013-03-23 12:40:00,
2013-03-23 08:45:00,24.6,19.9,29.69,West,265,14.0,14.0,82,0.00,OVC,,0.00,65.0,WeatherDisplay:10.37,2013-03-23 12:45:00,
2013-03-23 08:50:00,24.7,20.0,29.69,WSW,239,13.8,13.8,82,0.00,OVC,,0.00,121.0,WeatherDisplay:10.37,2013-03-23 12:50:00,
2013-03-23 08:55:00,24.8,20.1,29.68,West,264,13.8,13.8,82,0.00,OVC,,0.00,162.0,WeatherDisplay:10.37,2013-03-23 12:55:00,
2013-03-23 09:00:00,24.9,20.2,29.69,WNW,300,13.8,13.8,82,0.00,OVC,,0.00,132.0,WeatherDisplay:10.37,2013-03-23 13:00:00,
2013-03-23 09:05:00,25.1,20.1,29.68,WSW,240,13.8,13.8,81,0.00,OVC,,0.00,229.0,WeatherDisplay:10.37,2013-03-23 13:05:00,
2013-03-23 09:10:00,25.3,20.3,29.68,West,277,12.7,12.7,81,0.00,OVC,,0.00,264.0,WeatherDisplay:10.37,2013-03-23 13:10:00,
2013-03-23 09:15:00,25.6,20.3,29.68,WNW,294,11.5,11.5,80,0.00,OVC,,0.00,206.0,WeatherDisplay:10.37,2013-03-23 13:15:00,
2013-03-23 09:20:00,25.7,20.4,29.68,WNW,295,17.0,17.0,80,0.00,OVC,,0.00,174.0,WeatherDisplay:10.37,2013-03-23 13:20:00,
2013-03-23 09:25:00,25.7,20.1,29.69,WSW,258,11.5,11.5,79,0.00,OVC,,0.00,174.0,WeatherDisplay:10.37,2013-03-23 13:25:00,
2013-03-23 09:31:00,25.8,20.2,29.69,WSW,239,13.0,13.0,79,0.00,OVC,,0.00,265.0,WeatherDisplay:10.37,2013-03-23 13:31:00,
2013-03-23 09:36:00,26.1,20.5,29.69,WSW,237,14.0,14.0,79,0.00,OVC,,0.00,190.0,WeatherDisplay:10.37,2013-03-23 13:36:00,
2013-03-23 09:42:00,26.2,20.3,29.68,WSW,248,17.3,17.3,78,0.00,OVC,,0.00,163.0,WeatherDisplay:10.37,2013-03-23 13:42:00,
2013-03-23 09:47:00,26.4,20.2,29.68,WSW,248,13.0,13.0,77,0.00,OVC,,0.00,211.0,WeatherDisplay:10.37,2013-03-23 13:47:00,
2013-03-23 09:52:00,26.8,20.2,29.67,WNW,300,20.7,20.7,76,0.00,OVC,,0.00,737.0,WeatherDisplay:10.37,2013-03-23 13:52:00,
2013-03-23 09:57:00,27.3,20.1,29.67,West,277,13.8,13.8,74,0.00,OVC,,0.00,654.0,WeatherDisplay:10.37,2013-03-23 13:57:00,
2013-03-23 10:03:00,27.7,20.2,29.67,West,280,16.1,16.1,73,0.00,OVC,,0.00,471.0,WeatherDisplay:10.37,2013-03-23 14:03:00,
2013-03-23 10:08:00,28.0,19.8,29.67,West,263,18.4,18.4,71,0.00,OVC,,0.00,406.0,WeatherDisplay:10.37,2013-03-23 14:08:00,
2013-03-23 10:13:00,28.4,20.5,29.66,SW,235,20.0,20.0,72,0.00,OVC,,0.00,462.0,WeatherDisplay:10.37,2013-03-23 14:13:00,
2013-03-23 10:18:00,28.7,20.5,29.66,West,269,14.0,14.0,71,0.00,OVC,,0.00,311.0,WeatherDisplay:10.37,2013-03-23 14:18:00,
2013-03-23 10:23:00,28.8,20.2,29.66,WNW,296,16.0,16.0,70,0.00,OVC,,0.00,345.0,WeatherDisplay:10.37,2013-03-23 14:23:00,
2013-03-23 10:28:00,28.5,19.6,29.66,West,263,19.6,19.6,69,0.00,OVC,,0.00,283.0,WeatherDisplay:10.37,2013-03-23 14:28:00,
2013-03-23 10:33:00,28.5,20.0,29.66,WSW,242,11.5,11.5,70,0.00,OVC,,0.00,283.0,WeatherDisplay:10.37,2013-03-23 14:33:00,
2013-03-23 10:38:00,28.7,19.8,29.66,WNW,284,17.3,17.3,69,0.00,OVC,,0.00,290.0,WeatherDisplay:10.37,2013-03-23 14:38:00,
2013-03-23 10:43:00,28.6,19.7,29.66,West,277,17.3,17.3,69,0.00,OVC,,0.00,251.0,WeatherDisplay:10.37,2013-03-23 14:43:00,
2013-03-23 10:48:00,28.6,19.7,29.66,West,271,13.8,13.8,69,0.00,OVC,,0.00,271.0,WeatherDisplay:10.37,2013-03-23 14:48:00,
2013-03-23 10:53:00,28.7,19.8,29.66,NW,305,18.4,18.4,69,0.00,BKN,,0.00,229.0,WeatherDisplay:10.37,2013-03-23 14:53:00,
2013-03-23 10:58:00,28.5,19.6,29.66,West,265,26.5,26.5,69,0.00,SCT,,0.00,287.0,WeatherDisplay:10.37,2013-03-23 14:58:00,
2013-03-23 11:04:00,28.4,19.5,29.66,West,269,11.5,11.5,69,0.00,CLR,,0.00,230.0,WeatherDisplay:10.37,2013-03-23 15:04:00,
2013-03-23 11:09:00,28.6,19.7,29.66,WNW,292,17.3,17.3,69,0.00,CLR,,0.00,225.0,WeatherDisplay:10.37,2013-03-23 15:09:00,
2013-03-23 11:14:00,28.5,19.6,29.66,WNW,287,24.2,24.2,69,0.00,CLR,,0.00,241.0,WeatherDisplay:10.37,2013-03-23 15:14:00,
2013-03-23 11:19:00,28.4,19.9,29.66,West,273,19.6,19.6,70,0.00,CLR,,0.00,243.0,WeatherDisplay:10.37,2013-03-23 15:19:00,
2013-03-23 11:24:00,28.5,20.0,29.66,WNW,289,16.1,16.1,70,0.00,CLR,,0.00,295.0,WeatherDisplay:10.37,2013-03-23 15:24:00,
2013-03-23 11:29:00,28.9,20.0,29.66,WNW,294,10.4,10.4,69,0.00,CLR,,0.00,439.0,WeatherDisplay:10.37,2013-03-23 15:29:00,
2013-03-23 11:34:00,29.3,20.0,29.66,SW,234,15.0,15.0,68,0.00,CLR,,0.00,336.0,WeatherDisplay:10.37,2013-03-23 15:34:00,
2013-03-23 11:39:00,29.7,20.4,29.66,WNW,287,20.0,20.0,68,0.00,CLR,,0.00,364.0,WeatherDisplay:10.37,2013-03-23 15:39:00,
2013-03-23 11:44:00,29.8,20.2,29.66,NW,311,11.5,11.5,67,0.00,CLR,,0.00,446.0,WeatherDisplay:10.37,2013-03-23 15:44:00,
2013-03-23 11:49:00,30.1,20.1,29.66,WSW,246,23.0,23.0,66,0.00,CLR,,0.00,383.0,WeatherDisplay:10.37,2013-03-23 15:49:00,
2013-03-23 11:54:00,30.2,19.8,29.66,WSW,254,17.3,17.3,65,0.00,CLR,,0.00,413.0,WeatherDisplay:10.37,2013-03-23 15:54:00,
2013-03-23 11:59:00,30.5,20.1,29.66,NW,323,19.6,19.6,65,0.00,CLR,,0.00,341.0,WeatherDisplay:10.37,2013-03-23 15:59:00,
2013-03-23 12:04:00,30.9,20.1,29.66,WNW,288,18.4,18.4,64,0.00,CLR,,0.00,1220.0,WeatherDisplay:10.37,2013-03-23 16:04:00,
2013-03-23 12:09:00,31.3,20.5,29.66,NW,311,24.2,24.2,64,0.00,CLR,,0.00,478.0,WeatherDisplay:10.37,2013-03-23 16:09:00,
2013-03-23 12:14:00,31.3,20.2,29.66,West,262,18.4,18.4,63,0.00,CLR,,0.00,383.0,WeatherDisplay:10.37,2013-03-23 16:14:00,
2013-03-23 12:19:00,31.4,19.9,29.65,WSW,237,18.4,18.4,62,0.00,CLR,,0.00,601.0,WeatherDisplay:10.37,2013-03-23 16:19:00,
2013-03-23 12:24:00,31.4,19.5,29.65,West,278,27.6,27.6,61,0.00,CLR,,0.00,327.0,WeatherDisplay:10.37,2013-03-23 16:24:00,
2013-03-23 12:29:00,31.5,19.6,29.66,West,265,16.1,16.1,61,0.00,CLR,,0.00,1039.0,WeatherDisplay:10.37,2013-03-23 16:29:00,
2013-03-23 12:34:00,31.8,18.7,29.66,WNW,290,20.7,20.7,58,0.00,CLR,,0.00,1172.0,WeatherDisplay:10.37,2013-03-23 16:34:00,
2013-03-23 12:39:00,31.8,18.7,29.66,West,274,29.9,29.9,58,0.00,CLR,,0.00,1002.0,WeatherDisplay:10.37,2013-03-23 16:39:00,
2013-03-23 12:44:00,32.0,19.3,29.66,WSW,254,26.5,26.5,59,0.00,CLR,,0.00,1018.0,WeatherDisplay:10.37,2013-03-23 16:44:00,
2013-03-23 12:49:00,32.6,19.0,29.65,SW,220,20.7,20.7,57,0.00,CLR,,0.00,396.0,WeatherDisplay:10.37,2013-03-23 16:49:00,
2013-03-23 12:54:00,32.6,19.0,29.66,NW,320,17.3,17.3,57,0.00,CLR,,0.00,396.0,WeatherDisplay:10.37,2013-03-23 16:54:00,
2013-03-23 12:59:00,32.9,19.3,29.66,West,259,17.3,17.3,57,0.00,CLR,,0.00,1067.0,WeatherDisplay:10.37,2013-03-23 16:59:00,
2013-03-23 13:04:00,32.6,19.4,29.65,West,259,19.6,19.6,58,0.00,CLR,,0.00,276.0,WeatherDisplay:10.37,2013-03-23 17:04:00,
2013-03-23 13:09:00,32.6,19.4,29.65,West,278,28.8,28.8,58,0.00,CLR,,0.00,383.0,WeatherDisplay:10.37,2013-03-23 17:09:00,
2013-03-23 13:14:00,32.3,18.8,29.66,West,265,26.5,26.5,57,0.00,CLR,,0.00,383.0,WeatherDisplay:10.37,2013-03-23 17:14:00,
2013-03-23 13:19:00,32.6,18.6,29.66,WSW,250,22.0,22.0,56,0.00,CLR,,0.00,1114.0,WeatherDisplay:10.37,2013-03-23 17:19:00,
2013-03-23 13:24:00,32.5,18.5,29.65,West,274,20.7,20.7,56,0.00,CLR,,0.00,1114.0,WeatherDisplay:10.37,2013-03-23 17:24:00,
2013-03-23 13:29:00,32.5,19.3,29.65,West,263,29.9,29.9,58,0.00,CLR,,0.00,1109.0,WeatherDisplay:10.37,2013-03-23 17:29:00,
2013-03-23 13:35:00,32.3,18.8,29.66,WSW,256,24.2,24.2,57,0.00,CLR,,0.00,302.0,WeatherDisplay:10.37,2013-03-23 17:35:00,
2013-03-23 13:40:00,32.0,18.5,29.67,West,273,22.0,22.0,57,0.00,FEW,,0.00,325.0,WeatherDisplay:10.37,2013-03-23 17:40:00,
2013-03-23 13:45:00,31.7,18.2,29.67,WNW,300,19.6,19.6,57,0.00,SCT,,0.00,330.0,WeatherDisplay:10.37,2013-03-23 17:45:00,
2013-03-23 13:50:00,31.7,18.6,29.67,West,274,20.7,20.7,58,0.00,SCT,,0.00,297.0,WeatherDisplay:10.37,2013-03-23 17:50:00,
2013-03-23 13:55:00,32.1,18.6,29.67,West,274,24.2,24.2,57,0.00,SCT,,0.00,374.0,WeatherDisplay:10.37,2013-03-23 17:55:00,
2013-03-23 14:00:00,32.4,18.4,29.67,West,267,21.9,21.9,56,0.00,FEW,,0.00,432.0,WeatherDisplay:10.37,2013-03-23 18:00:00,
2013-03-23 14:05:00,33.0,18.6,29.67,West,268,14.0,14.0,55,0.00,CLR,,0.00,341.0,WeatherDisplay:10.37,2013-03-23 18:05:00,
2013-03-23 14:10:00,32.8,18.0,29.67,NW,305,18.4,18.4,54,0.00,FEW,,0.00,318.0,WeatherDisplay:10.37,2013-03-23 18:10:00,
2013-03-23 14:15:00,32.5,17.7,29.67,West,261,26.5,26.5,54,0.00,SCT,,0.00,352.0,WeatherDisplay:10.37,2013-03-23 18:15:00,
2013-03-23 14:20:00,32.0,17.6,29.67,WNW,302,21.9,21.9,55,0.00,SCT,,0.00,304.0,WeatherDisplay:10.37,2013-03-23 18:20:00,
2013-03-23 14:25:00,31.7,16.9,29.67,WNW,284,24.2,24.2,54,0.00,SCT,,0.00,436.0,WeatherDisplay:10.37,2013-03-23 18:25:00,
2013-03-23 14:30:00,31.9,18.4,29.67,West,261,20.0,20.0,57,0.00,SCT,,0.00,1041.0,WeatherDisplay:10.37,2013-03-23 18:30:00,
2013-03-23 14:35:00,32.7,18.7,29.67,WSW,244,26.5,26.5,56,0.00,CLR,,0.00,990.0,WeatherDisplay:10.37,2013-03-23 18:35:00,
2013-03-23 14:40:00,33.1,19.1,29.67,West,262,26.5,26.5,56,0.00,CLR,,0.00,870.0,WeatherDisplay:10.37,2013-03-23 18:40:00,
2013-03-23 14:45:00,33.4,18.9,29.67,WSW,243,19.6,19.6,55,0.00,CLR,,0.00,914.0,WeatherDisplay:10.37,2013-03-23 18:45:00,
2013-03-23 14:50:00,33.5,18.6,29.67,WNW,283,29.0,29.0,54,0.00,CLR,,0.00,246.0,WeatherDisplay:10.37,2013-03-23 18:50:00,
2013-03-23 14:55:00,32.8,18.0,29.67,West,271,25.3,25.3,54,0.00,FEW,,0.00,237.0,WeatherDisplay:10.37,2013-03-23 18:55:00,
2013-03-23 15:00:00,32.6,18.2,29.67,WSW,253,25.3,25.3,55,0.00,SCT,,0.00,842.0,WeatherDisplay:10.37,2013-03-23 19:00:00,
2013-03-23 15:05:00,32.4,18.0,29.67,West,275,20.7,20.7,55,0.00,FEW,,0.00,279.0,WeatherDisplay:10.37,2013-03-23 19:05:00,
2013-03-23 15:10:00,32.4,18.0,29.68,West,273,20.0,20.0,55,0.00,SCT,,0.00,234.0,WeatherDisplay:10.37,2013-03-23 19:10:00,
2013-03-23 15:15:00,32.6,18.2,29.67,WSW,249,26.5,26.5,55,0.00,SCT,,0.00,766.0,WeatherDisplay:10.37,2013-03-23 19:15:00,
2013-03-23 15:20:00,32.3,17.9,29.68,West,267,19.6,19.6,55,0.00,SCT,,0.00,369.0,WeatherDisplay:10.37,2013-03-23 19:20:00,
2013-03-23 15:25:00,32.1,18.6,29.68,WNW,284,23.0,23.0,57,0.00,SCT,,0.00,360.0,WeatherDisplay:10.37,2013-03-23 19:25:00,
2013-03-23 15:30:00,31.7,18.6,29.68,West,263,27.6,27.6,58,0.00,BKN,,0.00,200.0,WeatherDisplay:10.37,2013-03-23 19:30:00,
2013-03-23 15:35:00,31.7,18.6,29.68,West,265,19.6,19.6,58,0.00,BKN,,0.00,243.0,WeatherDisplay:10.37,2013-03-23 19:35:00,
2013-03-23 15:40:00,32.2,18.2,29.67,WSW,257,24.2,24.2,56,0.00,BKN,,0.00,274.0,WeatherDisplay:10.37,2013-03-23 19:40:00,
2013-03-23 15:45:00,32.1,18.2,29.68,West,267,18.4,18.4,56,0.00,BKN,,0.00,343.0,WeatherDisplay:10.37,2013-03-23 19:45:00,
2013-03-23 15:50:00,32.5,18.5,29.67,WSW,251,36.0,36.0,56,0.00,SCT,,0.00,735.0,WeatherDisplay:10.37,2013-03-23 19:50:00,
2013-03-23 15:55:00,32.6,18.6,29.67,NE,34,15.0,15.0,56,0.00,SCT,,0.00,251.0,WeatherDisplay:10.37,2013-03-23 19:55:00,
2013-03-23 16:00:00,32.6,18.6,29.67,West,265,22.0,22.0,56,0.00,SCT,,0.00,199.0,WeatherDisplay:10.37,2013-03-23 20:00:00,
2013-03-23 16:05:00,32.5,18.5,29.67,WNW,291,21.0,21.0,56,0.00,BKN,,0.00,276.0,WeatherDisplay:10.37,2013-03-23 20:05:00,
2013-03-23 16:10:00,32.6,19.0,29.68,NNW,329,19.6,19.6,57,0.00,BKN,,0.00,211.0,WeatherDisplay:10.37,2013-03-23 20:10:00,
2013-03-23 16:15:00,32.4,18.4,29.68,West,268,16.1,16.1,56,0.00,BKN,,0.00,248.0,WeatherDisplay:10.37,2013-03-23 20:15:00,
2013-03-23 16:20:00,32.3,18.8,29.68,NNW,334,12.7,12.7,57,0.00,BKN,,0.00,485.0,WeatherDisplay:10.37,2013-03-23 20:20:00,
2013-03-23 16:25:00,32.4,19.7,29.69,WNW,299,32.2,32.2,59,0.00,BKN,,0.00,281.0,WeatherDisplay:10.37,2013-03-23 20:25:00,
2013-03-23 16:30:00,32.4,18.4,29.69,NNW,337,18.4,18.4,56,0.00,BKN,,0.00,297.0,WeatherDisplay:10.37,2013-03-23 20:30:00,
2013-03-23 16:35:00,32.6,19.0,29.69,West,259,20.0,20.0,57,0.00,BKN,,0.00,353.0,WeatherDisplay:10.37,2013-03-23 20:35:00,
2013-03-23 16:40:00,32.6,19.4,29.69,West,265,12.7,12.7,58,0.00,BKN,,0.00,283.0,WeatherDisplay:10.37,2013-03-23 20:40:00,
2013-03-23 16:45:00,32.6,19.8,29.69,West,278,20.7,20.7,59,0.00,BKN,,0.00,374.0,WeatherDisplay:10.37,2013-03-23 20:45:00,
2013-03-23 16:50:00,32.5,20.1,29.69,NW,315,20.7,20.7,60,0.00,BKN,,0.00,255.0,WeatherDisplay:10.37,2013-03-23 20:50:00,
2013-03-23 16:55:00,32.5,19.7,29.69,NNW,332,23.0,23.0,59,0.00,BKN,,0.00,271.0,WeatherDisplay:10.37,2013-03-23 20:55:00,
2013-03-23 17:00:00,32.4,19.7,29.69,West,271,19.6,19.6,59,0.00,BKN,,0.00,246.0,WeatherDisplay:10.37,2013-03-23 21:00:00,
2013-03-23 17:05:00,32.1,19.0,29.70,West,263,24.2,24.2,58,0.00,BKN,,0.00,171.0,WeatherDisplay:10.37,2013-03-23 21:05:00,
2013-03-23 17:11:00,32.0,19.3,29.70,West,266,13.8,13.8,59,0.00,BKN,,0.00,160.0,WeatherDisplay:10.37,2013-03-23 21:11:00,
2013-03-23 17:16:00,32.0,19.3,29.70,West,277,20.7,20.7,59,0.00,BKN,,0.00,190.0,WeatherDisplay:10.37,2013-03-23 21:16:00,
2013-03-23 17:21:00,31.9,18.8,29.70,West,272,16.1,16.1,58,0.00,BKN,,0.00,163.0,WeatherDisplay:10.37,2013-03-23 21:21:00,
2013-03-23 17:26:00,31.9,19.2,29.70,West,273,17.3,17.3,59,0.00,BKN,,0.00,165.0,WeatherDisplay:10.37,2013-03-23 21:26:00,
2013-03-23 17:31:00,32.0,18.9,29.70,NW,306,9.2,9.2,58,0.00,BKN,,0.00,174.0,WeatherDisplay:10.37,2013-03-23 21:31:00,
2013-03-23 17:36:00,32.0,19.3,29.71,WNW,284,10.4,10.4,59,0.00,BKN,,0.00,153.0,WeatherDisplay:10.37,2013-03-23 21:36:00,
2013-03-23 17:41:00,32.0,18.9,29.71,WSW,244,23.0,23.0,58,0.00,BKN,,0.00,142.0,WeatherDisplay:10.37,2013-03-23 21:41:00,
2013-03-23 17:46:00,31.9,18.4,29.71,West,281,25.3,25.3,57,0.00,BKN,,0.00,98.0,WeatherDisplay:10.37,2013-03-23 21:46:00,
2013-03-23 17:51:00,31.7,18.2,29.72,West,281,22.0,22.0,57,0.00,BKN,,0.00,111.0,WeatherDisplay:10.37,2013-03-23 21:51:00,
2013-03-23 17:56:00,31.7,18.2,29.72,West,265,21.9,21.9,57,0.00,BKN,,0.00,116.0,WeatherDisplay:10.37,2013-03-23 21:56:00,
2013-03-23 18:01:00,31.6,18.1,29.72,West,268,25.3,25.3,57,0.00,BKN,,0.00,84.0,WeatherDisplay:10.37,2013-03-23 22:01:00,
2013-03-23 18:06:00,31.5,18.0,29.72,SW,233,19.6,19.6,57,0.00,BKN,,0.00,77.0,WeatherDisplay:10.37,2013-03-23 22:06:00,
2013-03-23 18:11:00,31.4,18.3,29.72,West,263,17.3,17.3,58,0.00,BKN,,0.00,60.0,WeatherDisplay:10.37,2013-03-23 22:11:00,
2013-03-23 18:16:00,31.3,18.6,29.72,West,273,21.0,21.0,59,0.00,BKN,,0.00,60.0,WeatherDisplay:10.37,2013-03-23 22:16:00,
2013-03-23 18:21:00,31.2,18.5,29.72,WNW,292,8.1,8.1,59,0.00,BKN,,0.00,40.0,WeatherDisplay:10.37,2013-03-23 22:21:00,
2013-03-23 18:26:00,31.2,18.5,29.73,West,278,15.0,15.0,59,0.00,BKN,,0.00,42.0,WeatherDisplay:10.37,2013-03-23 22:26:00,
2013-03-23 18:31:00,31.1,18.8,29.73,West,275,15.0,15.0,60,0.00,BKN,,0.00,40.0,WeatherDisplay:10.37,2013-03-23 22:31:00,
2013-03-23 18:37:00,31.0,18.7,29.73,WNW,287,15.0,15.0,60,0.00,BKN,,0.00,46.0,WeatherDisplay:10.37,2013-03-23 22:37:00,
2013-03-23 18:42:00,30.9,19.4,29.73,WNW,290,17.0,17.0,62,0.00,BKN,,0.00,28.0,WeatherDisplay:10.37,2013-03-23 22:42:00,
2013-03-23 18:47:00,30.7,19.2,29.73,NNW,333,14.0,14.0,62,0.00,,,0.00,19.0,WeatherDisplay:10.37,2013-03-23 22:47:00,
2013-03-23 18:53:00,30.6,19.1,29.73,West,259,11.5,11.5,62,0.00,,,0.00,12.0,WeatherDisplay:10.37,2013-03-23 22:53:00,
2013-03-23 18:58:00,30.5,19.4,29.73,WNW,293,12.0,12.0,63,0.00,,,0.00,7.0,WeatherDisplay:10.37,2013-03-23 22:58:00,
2013-03-23 19:03:00,30.4,19.3,29.73,West,263,11.5,11.5,63,0.00,,,0.00,5.0,WeatherDisplay:10.37,2013-03-23 23:03:00,
2013-03-23 19:08:00,30.3,19.6,29.73,WNW,298,16.0,16.0,64,0.00,,,0.00,0.0,WeatherDisplay:10.37,2013-03-23 23:08:00,
2013-03-23 19:13:00,30.1,19.4,29.74,WSW,252,18.4,18.4,64,0.00,,,0.00,0.0,WeatherDisplay:10.37,2013-03-23 23:13:00,
2013-03-23 19:18:00,30.0,19.7,29.74,WNW,292,15.0,15.0,65,0.00,,,0.00,0.0,WeatherDisplay:10.37,2013-03-23 23:18:00,
2013-03-23 19:23:00,29.9,19.2,29.74,West,273,18.4,18.4,64,0.00,,,0.00,0.0,WeatherDisplay:10.37,2013-03-23 23:23:00,
2013-03-23 19:28:00,29.9,19.6,29.74,West,265,12.7,12.7,65,0.00,,,0.00,0.0,WeatherDisplay:10.37,2013-03-23 23:28:00,
2013-03-23 19:34:00,29.7,19.4,29.74,West,274,15.0,15.0,65,0.00,,,0.00,0.0,WeatherDisplay:10.37,2013-03-23 23:34:00,
2013-03-23 19:39:00,29.6,19.3,29.75,West,264,12.7,12.7,65,0.00,,,0.00,0.0,WeatherDisplay:10.37,2013-03-23 23:39:00,
2013-03-23 19:44:00,29.5,19.5,29.75,WNW,287,11.5,11.5,66,0.00,,,0.00,0.0,WeatherDisplay:10.37,2013-03-23 23:44:00,
2013-03-23 19:49:00,29.4,19.4,29.75,WNW,290,15.0,15.0,66,0.00,,,0.00,0.0,WeatherDisplay:10.37,2013-03-23 23:49:00,
2013-03-23 19:54:00,29.4,19.4,29.75,WNW,290,19.0,19.0,66,0.00,,,0.00,0.0,WeatherDisplay:10.37,2013-03-23 23:54:00,
2013-03-23 19:59:00,29.4,19.4,29.75,WNW,292,12.7,12.7,66,0.00,,,0.00,0.0,WeatherDisplay:10.37,2013-03-23 23:59:00,
2013-03-23 20:04:00,29.4,19.4,29.75,NNW,344,11.5,11.5,66,0.00,,,0.00,0.0,WeatherDisplay:10.37,2013-03-24 00:04:00,
2013-03-23 20:09:00,29.4,19.4,29.75,WSW,254,17.0,17.0,66,0.00,,,0.00,0.0,WeatherDisplay:10.37,2013-03-24 00:09:00,
2013-03-23 20:14:00,29.4,19.4,29.75,WNW,283,16.1,16.1,66,0.00,,,0.00,0.0,WeatherDisplay:10.37,2013-03-24 00:14:00,
2013-03-23 20:19:00,29.3,19.3,29.76,WSW,243,9.0,9.0,66,0.00,,,0.00,0.0,WeatherDisplay:10.37,2013-03-24 00:19:00,
2013-03-23 20:24:00,29.3,19.7,29.77,West,261,15.0,15.0,67,0.00,,,0.00,0.0,WeatherDisplay:10.37,2013-03-24 00:24:00,
2013-03-23 20:29:00,29.3,19.7,29.77,WSW,254,19.6,19.6,67,0.00,,,0.00,0.0,WeatherDisplay:10.37,2013-03-24 00:29:00,
2013-03-23 20:34:00,29.3,19.7,29.77,West,275,8.1,8.1,67,0.00,,,0.00,0.0,WeatherDisplay:10.37,2013-03-24 00:34:00,
2013-03-23 20:39:00,29.3,19.7,29.77,WSW,254,13.0,13.0,67,0.00,,,0.00,0.0,WeatherDisplay:10.37,2013-03-24 00:39:00,
2013-03-23 20:44:00,29.3,19.7,29.77,West,267,16.1,16.1,67,0.00,,,0.00,0.0,WeatherDisplay:10.37,2013-03-24 00:44:00,
2013-03-23 20:49:00,29.3,20.0,29.77,West,263,11.5,11.5,68,0.00,,,0.00,0.0,WeatherDisplay:10.37,2013-03-24 00:49:00,
2013-03-23 20:54:00,29.3,20.0,29.78,West,281,12.0,12.0,68,0.00,,,0.00,0.0,WeatherDisplay:10.37,2013-03-24 00:54:00,
2013-03-23 20:59:00,29.3,20.0,29.77,WNW,298,15.0,15.0,68,0.00,,,0.00,0.0,WeatherDisplay:10.37,2013-03-24 00:59:00,
2013-03-23 21:04:00,29.2,19.9,29.78,West,272,16.1,16.1,68,0.00,,,0.00,0.0,WeatherDisplay:10.37,2013-03-24 01:04:00,
2013-03-23 21:10:00,29.3,20.0,29.78,West,271,9.2,9.2,68,0.00,,,0.00,0.0,WeatherDisplay:10.37,2013-03-24 01:10:00,
2013-03-23 21:15:00,29.2,19.9,29.78,West,277,10.4,10.4,68,0.00,,,0.00,0.0,WeatherDisplay:10.37,2013-03-24 01:15:00,
2013-03-23 21:20:00,29.2,19.9,29.78,West,281,5.8,5.8,68,0.00,,,0.00,0.0,WeatherDisplay:10.37,2013-03-24 01:20:00,
2013-03-23 21:25:00,29.1,19.8,29.78,West,281,8.1,8.1,68,0.00,,,0.00,0.0,WeatherDisplay:10.37,2013-03-24 01:25:00,
2013-03-23 21:30:00,29.2,19.9,29.78,WNW,299,11.5,11.5,68,0.00,,,0.00,0.0,WeatherDisplay:10.37,2013-03-24 01:30:00,
2013-03-23 21:36:00,29.1,19.8,29.78,WSW,240,12.7,12.7,68,0.00,,,0.00,0.0,WeatherDisplay:10.37,2013-03-24 01:36:00,
2013-03-23 21:41:00,29.1,19.8,29.78,WNW,283,9.2,9.2,68,0.00,,,0.00,0.0,WeatherDisplay:10.37,2013-03-24 01:41:00,
2013-03-23 21:46:00,29.0,19.8,29.78,WNW,296,7.0,7.0,68,0.00,,,0.00,0.0,WeatherDisplay:10.37,2013-03-24 01:46:00,
2013-03-23 21:51:00,29.0,19.4,29.78,WNW,284,13.8,13.8,67,0.00,,,0.00,0.0,WeatherDisplay:10.37,2013-03-24 01:51:00,
2013-03-23 21:56:00,29.1,19.5,29.78,WNW,288,8.0,8.0,67,0.00,,,0.00,0.0,WeatherDisplay:10.37,2013-03-24 01:56:00,
2013-03-23 22:02:00,29.1,19.5,29.78,SW,234,11.0,11.0,67,0.00,,,0.00,0.0,WeatherDisplay:10.37,2013-03-24 02:02:00,
2013-03-23 22:07:00,29.0,19.4,29.77,West,274,6.9,6.9,67,0.00,,,0.00,0.0,WeatherDisplay:10.37,2013-03-24 02:07:00,
2013-03-23 22:12:00,29.0,19.4,29.77,West,261,12.7,12.7,67,0.00,,,0.00,0.0,WeatherDisplay:10.37,2013-03-24 02:12:00,
2013-03-23 22:17:00,28.9,19.7,29.78,WNW,282,6.9,6.9,68,0.00,,,0.00,0.0,WeatherDisplay:10.37,2013-03-24 02:17:00,
2013-03-23 22:22:00,28.8,19.6,29.78,WNW,289,9.0,9.0,68,0.00,,,0.00,0.0,WeatherDisplay:10.37,2013-03-24 02:22:00,
2013-03-23 22:27:00,28.8,19.6,29.78,West,267,9.2,9.2,68,0.00,,,0.00,0.0,WeatherDisplay:10.37,2013-03-24 02:27:00,
2013-03-23 22:33:00,28.8,19.6,29.78,North,350,10.4,10.4,68,0.00,,,0.00,0.0,WeatherDisplay:10.37,2013-03-24 02:33:00,
2013-03-23 22:38:00,28.8,19.6,29.78,West,269,11.5,11.5,68,0.00,,,0.00,0.0,WeatherDisplay:10.37,2013-03-24 02:38:00,
2013-03-23 22:43:00,28.8,19.6,29.78,West,259,11.0,11.0,68,0.00,,,0.00,0.0,WeatherDisplay:10.37,2013-03-24 02:43:00,
2013-03-23 22:48:00,28.8,19.6,29.78,West,262,13.0,13.0,68,0.00,,,0.00,0.0,WeatherDisplay:10.37,2013-03-24 02:48:00,
2013-03-23 22:53:00,28.8,19.6,29.78,West,261,10.4,10.4,68,0.00,,,0.00,0.0,WeatherDisplay:10.37,2013-03-24 02:53:00,
2013-03-23 22:58:00,28.8,19.6,29.78,West,259,10.4,10.4,68,0.00,,,0.00,0.0,WeatherDisplay:10.37,2013-03-24 02:58:00,
2013-03-23 23:03:00,28.7,19.5,29.78,West,259,9.2,9.2,68,0.00,,,0.00,0.0,WeatherDisplay:10.37,2013-03-24 03:03:00,
2013-03-23 23:08:00,28.7,19.5,29.78,West,261,9.2,9.2,68,0.00,,,0.00,0.0,WeatherDisplay:10.37,2013-03-24 03:08:00,
2013-03-23 23:13:00,28.7,19.8,29.78,WNW,300,11.5,11.5,69,0.00,,,0.00,0.0,WeatherDisplay:10.37,2013-03-24 03:13:00,
2013-03-23 23:18:00,28.7,19.8,29.78,WNW,289,12.7,12.7,69,0.00,,,0.00,0.0,WeatherDisplay:10.37,2013-03-24 03:18:00,
2013-03-23 23:23:00,28.6,19.7,29.78,WSW,257,11.5,11.5,69,0.00,,,0.00,0.0,WeatherDisplay:10.37,2013-03-24 03:23:00,
2013-03-23 23:28:00,28.5,20.0,29.78,West,259,12.7,12.7,70,0.00,,,0.00,0.0,WeatherDisplay:10.37,2013-03-24 03:28:00,
2013-03-23 23:33:00,28.5,20.3,29.78,West,268,16.1,16.1,71,0.00,,,0.00,0.0,WeatherDisplay:10.37,2013-03-24 03:33:00,
2013-03-23 23:38:00,28.4,20.2,29.78,WSW,250,11.0,11.0,71,0.00,,,0.00,0.0,WeatherDisplay:10.37,2013-03-24 03:38:00,
2013-03-23 23:43:00,28.3,20.1,29.78,West,263,11.5,11.5,71,0.00,,,0.00,0.0,WeatherDisplay:10.37,2013-03-24 03:43:00,
2013-03-23 23:48:00,28.3,20.1,29.78,West,266,9.2,9.2,71,0.00,,,0.00,0.0,WeatherDisplay:10.37,2013-03-24 03:48:00,
2013-03-23 23:53:00,28.2,20.3,29.78,WNW,284,12.0,12.0,72,0.00,,,0.00,0.0,WeatherDisplay:10.37,2013-03-24 03:53:00,
2013-03-23 23:58:00,28.2,20.3,29.78,WSW,253,13.0,13.0,72,0.00,,,0.00,0.0,WeatherDisplay:10.37,2013-03-24 03:58:00,